Bei Facebook empfehlenBei Twitter postenGoogle plusPinterest

Das Wetter im Erzgebirge am 06.03.2017

Wetter und Klima am 06.03.2017 Holzhau im Erzgebirge (630m ü.NN)
Letzte gemessene Temperatur und Uhrzeit der Messung23:45:00 Uhr1.00 °C
Temperatur (Maximum / Höchstwert) und Uhrzeit der Messung14:30:00 Uhr6.30 °C
Temperatur (Minimum / Tiefstwert) und Uhrzeit der Messung00:00:00-1.40 °C
Errechneter Absolutwert der Temperaturschwankungen zwischen Tmin und Tmax des Tages7.70 K
Errechnete Tagesmitteltemperatur2.12813 °C
Gesamt - Niederschlag des Tages (in flüssiger Form)2.59 Liter / m²
Luftdruck (Maximum / Höchstwert) und Zeitpunkt der Messung23:45:00 Uhr998.40 hPa
Luftdruck (Minimum / Tiefstwert) und Zeitpunkt der Messung16:30:00 Uhr995.90 hPa
Errechneter Absolutwert der Luftdruckschwankungen des Tages2.50 hPa
Höchste gemessene Windgeschwindigkeit und Uhrzeit der Messung13:15:00 Uhr10.80 km/h
Errechnete Windhäufigkeit in Relation zu den Messwerten des Tages25.00000 %
Niedrigste Windkühle (Windchill) und Zeitpunkt der Messung01:30:00 Uhr-2.10 °C
Taupunkt (Maximum / Höchstwert) und Uhrzeit der Messung14:15:00 Uhr3.60 °C
Taupunkt (Minimum / Tiefstwert) und Uhrzeit der Messung00:00:00-3.30 °C
Anzahl der automatisch eingelesenen Messwerte 96

Detaillierte Wetter- und Klima- Messwerte für den 06.03.2017 in Holzhau im Erzgebirge (630m ü.NN)
ZeitTemperaturLuftdruckRel. LuftfeuchteWindWindrichtungWindchillTaupunktNiederschlag l/m²
23:45:001.00 °C998.40 hPa91.00 %-0.30 °C2.59
23:30:000.90 °C998.30 hPa91.00 %-0.40 °C2.59
23:15:000.90 °C998.40 hPa91.00 %-0.40 °C2.59
23:00:000.90 °C998.30 hPa91.00 %-0.40 °C2.59
22:45:000.90 °C998.20 hPa91.00 %-0.40 °C2.59
22:30:000.80 °C998.10 hPa91.00 %-0.50 °C2.07
22:15:000.80 °C997.90 hPa91.00 %-0.50 °C2.07
22:00:000.70 °C997.90 hPa91.00 %-0.60 °C2.07
21:45:000.60 °C997.80 hPa91.00 %-0.70 °C2.07
21:30:000.60 °C997.70 hPa90.00 %-0.80 °C2.07
21:15:000.80 °C997.60 hPa90.00 %-0.60 °C2.07
21:00:000.90 °C997.60 hPa90.00 %-0.50 °C2.07
20:45:000.90 °C997.70 hPa90.00 %-0.50 °C2.07
20:30:000.90 °C997.40 hPa90.00 %-0.50 °C2.07
20:15:000.90 °C997.40 hPa90.00 %-0.50 °C2.07
20:00:000.90 °C997.30 hPa90.00 %-0.50 °C2.07
19:45:000.90 °C997.20 hPa90.00 %-0.50 °C2.07
19:30:000.80 °C997.30 hPa90.00 %-0.60 °C2.07
19:15:000.70 °C997.20 hPa89.00 %-0.90 °C2.07
19:00:000.80 °C997.10 hPa89.00 %-0.80 °C2.07
18:45:001.00 °C997.00 hPa87.00 %-0.90 °C2.07
18:30:001.40 °C996.80 hPa88.00 %-0.40 °C2.07
18:15:001.60 °C996.80 hPa87.00 %-0.30 °C2.07
18:00:001.80 °C996.70 hPa86.00 %-0.30 °C2.07
17:45:002.30 °C996.70 hPa85.00 %0.00 °C2.07
17:30:003.00 °C996.60 hPa83.00 %0.40 °C2.07
17:15:004.40 °C996.40 hPa82.00 %1.60 °C1.55
17:00:004.90 °C996.10 hPa82.00 %2.10 °C1.55
16:45:005.10 °C996.00 hPa81.00 %2.10 °C1.55
16:30:005.20 °C995.90 hPa81.00 %2.20 °C1.55
16:15:005.30 °C996.10 hPa81.00 %2.30 °C1.55
16:00:005.20 °C996.10 hPa82.00 %0.72 km/hWNW5.20 °C2.40 °C1.55
15:45:005.00 °C996.20 hPa82.00 %2.20 °C1.55
15:30:004.90 °C996.30 hPa81.00 %1.90 °C1.55
15:15:005.60 °C996.30 hPa81.00 %4.32 km/hSW5.60 °C2.60 °C1.55
15:00:005.20 °C996.20 hPa83.00 %3.60 km/hSW5.20 °C2.60 °C1.55
14:45:005.50 °C996.30 hPa81.00 %4.32 km/hWSW5.50 °C2.50 °C1.55
14:30:006.30 °C996.30 hPa82.00 %3.50 °C1.55
14:15:005.90 °C996.30 hPa85.00 %3.60 °C1.55
14:00:004.90 °C996.40 hPa84.00 %2.52 km/hW4.90 °C2.40 °C1.55
13:45:005.40 °C996.40 hPa82.00 %3.24 km/hWNW5.40 °C2.60 °C1.55
13:30:005.40 °C996.40 hPa84.00 %2.90 °C1.55
13:15:004.40 °C996.60 hPa87.00 %10.80 km/hSW1.80 °C2.40 °C1.55
13:00:004.10 °C996.90 hPa85.00 %4.68 km/hSW4.10 °C1.80 °C1.03
12:45:004.40 °C997.00 hPa85.00 %5.04 km/hS3.40 °C2.10 °C1.03
12:30:004.20 °C997.00 hPa86.00 %1.80 km/hWNW4.20 °C2.10 °C1.03
12:15:004.10 °C997.20 hPa86.00 %2.52 km/hWSW4.10 °C2.00 °C1.03
12:00:004.20 °C997.30 hPa88.00 %2.40 °C1.03
11:45:003.30 °C997.20 hPa88.00 %6.12 km/hSW1.70 °C1.50 °C1.03
11:30:003.10 °C997.40 hPa89.00 %1.50 °C1.03
11:15:002.70 °C997.60 hPa89.00 %1.10 °C1.03
11:00:002.80 °C997.60 hPa89.00 %1.20 °C1.03
10:45:002.70 °C997.50 hPa89.00 %1.10 °C1.03
10:30:002.50 °C997.60 hPa90.00 %1.80 km/hWNW2.50 °C1.00 °C1.03
10:15:002.00 °C997.80 hPa90.00 %0.50 °C1.03
10:00:001.60 °C997.80 hPa90.00 %0.10 °C1.03
09:45:001.60 °C997.80 hPa90.00 %0.10 °C0.51
09:30:001.40 °C997.70 hPa90.00 %-0.10 °C0.51
09:15:001.30 °C997.80 hPa90.00 %1.44 km/hWSW1.30 °C-0.20 °C0.51
09:00:001.30 °C997.70 hPa90.00 %3.24 km/hW1.30 °C-0.20 °C0.51
08:45:001.40 °C997.70 hPa89.00 %-0.20 °C0.51
08:30:001.60 °C997.70 hPa89.00 %0.00 °C0.51
08:15:001.80 °C997.50 hPa88.00 %0.00 °C 
08:00:001.90 °C997.50 hPa88.00 %3.60 km/hWNW1.90 °C0.10 °C 
07:45:001.90 °C997.40 hPa88.00 %0.10 °C 
07:30:001.80 °C997.20 hPa88.00 %8.28 km/hSW-0.70 °C0.00 °C 
07:15:001.60 °C997.20 hPa89.00 %0.00 °C 
07:00:001.60 °C997.10 hPa89.00 %0.00 °C 
06:45:001.50 °C997.20 hPa89.00 %-0.10 °C 
06:30:001.50 °C997.10 hPa89.00 %4.68 km/hSSW1.50 °C-0.10 °C 
06:15:001.40 °C997.40 hPa89.00 %-0.20 °C 
06:00:001.70 °C997.30 hPa89.00 %0.10 °C 
05:45:001.80 °C997.30 hPa89.00 %4.68 km/hOSO1.80 °C0.20 °C 
05:30:001.50 °C997.30 hPa89.00 %-0.10 °C 
05:15:001.40 °C997.10 hPa89.00 %-0.20 °C 
05:00:001.30 °C997.30 hPa89.00 %1.08 km/hSSW1.30 °C-0.30 °C 
04:45:001.30 °C997.40 hPa88.00 %-0.50 °C 
04:30:001.40 °C997.30 hPa89.00 %-0.20 °C 
04:15:001.30 °C997.40 hPa89.00 %1.08 km/hSO1.30 °C-0.30 °C 
04:00:001.10 °C997.60 hPa88.00 %-0.70 °C 
03:45:001.30 °C997.30 hPa88.00 %-0.50 °C 
03:30:001.30 °C997.60 hPa88.00 %-0.50 °C 
03:15:001.40 °C997.50 hPa88.00 %-0.40 °C 
03:00:001.50 °C997.70 hPa88.00 %-0.30 °C 
02:45:001.60 °C997.90 hPa87.00 %-0.30 °C 
02:30:001.80 °C997.90 hPa87.00 %-0.10 °C 
02:15:001.70 °C998.00 hPa87.00 %-0.20 °C 
02:00:001.90 °C997.90 hPa87.00 %0.00 °C 
01:45:001.50 °C998.00 hPa89.00 %-0.10 °C 
01:30:000.40 °C998.20 hPa89.00 %7.56 km/hSW-2.10 °C-1.20 °C 
01:15:00-0.10 °C998.00 hPa88.00 %-2.00 °C 
01:00:00-0.40 °C998.00 hPa88.00 %-2.30 °C 
00:45:00-0.60 °C997.80 hPa88.00 %2.88 km/hOSO-0.60 °C-2.50 °C 
00:30:00-0.90 °C997.90 hPa88.00 %0.72 km/hOSO-0.90 °C-2.80 °C 
00:15:00-1.10 °C998.10 hPa88.00 %-3.00 °C 
00:00:00-1.40 °C998.00 hPa88.00 %-3.30 °C 

Permanenter Link zu dieser Seite: Wetter im Erzgebirge am 06.03.2017
Performance-Info: Die Erstellung der Seite / Statistik(en) / Tabelle(n) erforderte 5 Datenbankserver-Abfrage(n) und dauerte 102 Millisekunden. (Dieser Messwert ist von der Gesamt-Auslastung des Servers abhängig.)
Erzgebirge - Wetter | Erzgebirge - Wetter (Mobilgeräte) | Komplette Klimadatenbank